Time;durP1;ratioP1;P1;durP2;ratioP2;P2;SDS_P1;SDS_P2;PMS_P1;PMS_P2;Temp;Humidity;BMP_temperature;BMP_pressure;BME280_temperature;BME280_humidity;BME280_pressure;Samples;Min_cycle;Max_cycle;Signal;HPM_P1;HPM_P2
2021/08/22 00:02:08;;;;;;;8.57;4.30;;;;;;;;;;8222397;28;20057;-72
2021/08/22 00:06:13;;;;;;;7.13;3.97;;;;;;;;;;8259965;28;20049;-72
2021/08/22 00:10:19;;;;;;;6.65;3.75;;;;;;;;;;8257412;28;20064;-73
2021/08/22 00:14:24;;;;;;;7.20;4.45;;;;;;;;;;8238889;28;20407;-72
2021/08/22 00:18:30;;;;;;;6.15;3.95;;;;;;;;;;8258188;28;20341;-72
2021/08/22 00:22:36;;;;;;;5.68;3.47;;;;;;;;;;8256906;28;20329;-73
2021/08/22 00:26:42;;;;;;;8.30;3.70;;;;;;;;;;8256174;28;20330;-72
2021/08/22 00:30:47;;;;;;;4.45;3.03;;;;;;;;;;8262140;28;20371;-72
2021/08/22 00:34:52;;;;;;;6.22;3.35;;;;;;;;;;8260936;28;20456;-72
2021/08/22 00:38:57;;;;;;;4.93;3.55;;;;;;;;;;8260709;28;20048;-72
2021/08/22 00:43:07;;;;;;;6.18;4.07;;;;;;;;;;8278482;28;20451;-72
2021/08/22 00:47:12;;;;;;;6.80;4.22;;;;;;;;;;8260723;28;20482;-73
2021/08/22 00:51:18;;;;;;;5.95;3.92;;;;;;;;;;8262340;28;20367;-72
2021/08/22 00:55:23;;;;;;;5.13;3.60;;;;;;;;;;8264426;28;20067;-72
2021/08/22 00:59:28;;;;;;;7.40;4.18;;;;;;;;;;8262485;28;20052;-72
2021/08/22 01:03:46;;;;;;;96.10;43.80;;;;;;;;;;8261427;28;20460;-72
2021/08/22 01:08:17;;;;;;;88.63;39.00;;;;;;;;;;8276019;28;20398;-72
2021/08/22 01:12:35;;;;;;;39.78;21.13;;;;;;;;;;8254606;28;20363;-72
2021/08/22 01:16:47;;;;;;;6.25;4.10;;;;;;;;;;8259662;28;20403;-73
2021/08/22 01:21:14;;;;;;;4.95;2.97;;;;;;;;;;8259994;28;20387;-73
2021/08/22 01:25:21;;;;;;;6.07;3.47;;;;;;;;;;8261000;28;20071;-72
2021/08/22 01:29:34;;;;;;;6.05;3.45;;;;;;;;;;8259552;28;20407;-72
2021/08/22 01:33:42;;;;;;;3.85;2.72;;;;;;;;;;8259930;28;20529;-72
2021/08/22 01:37:49;;;;;;;4.38;2.95;;;;;;;;;;8260657;28;20470;-72
2021/08/22 01:41:55;;;;;;;5.07;3.03;;;;;;;;;;8261171;28;20067;-72
2021/08/22 01:46:01;;;;;;;4.30;2.80;;;;;;;;;;8260461;28;20502;-72
2021/08/22 01:50:08;;;;;;;5.75;3.15;;;;;;;;;;8258710;28;20356;-72
2021/08/22 01:54:13;;;;;;;6.75;3.25;;;;;;;;;;8258266;28;20487;-72
2021/08/22 01:58:18;;;;;;;5.68;3.38;;;;;;;;;;8258901;28;20045;-73
2021/08/22 02:02:24;;;;;;;7.07;3.28;;;;;;;;;;8260269;28;20059;-73
2021/08/22 02:06:41;;;;;;;6.95;3.25;;;;;;;;;;8258585;28;20375;-73
2021/08/22 02:11:08;;;;;;;5.30;3.47;;;;;;;;;;8242490;28;20475;-72
2021/08/22 02:15:31;;;;;;;4.32;3.00;;;;;;;;;;8259775;28;20495;-72
2021/08/22 02:19:39;;;;;;;6.47;3.55;;;;;;;;;;8259174;28;20060;-72
2021/08/22 02:23:44;;;;;;;4.33;3.13;;;;;;;;;;8257999;28;20495;-73
2021/08/22 02:27:50;;;;;;;5.10;3.47;;;;;;;;;;8242565;28;20361;-73
2021/08/22 02:31:55;;;;;;;5.32;2.88;;;;;;;;;;8257456;28;20396;-73
2021/08/22 02:36:01;;;;;;;4.85;3.00;;;;;;;;;;8260752;28;20355;-73
2021/08/22 02:40:07;;;;;;;7.13;2.85;;;;;;;;;;8241007;28;20360;-72
2021/08/22 02:44:12;;;;;;;5.38;3.33;;;;;;;;;;8259055;28;20037;-72
2021/08/22 02:48:18;;;;;;;6.38;3.45;;;;;;;;;;8259036;28;20067;-73
2021/08/22 02:52:23;;;;;;;4.80;3.17;;;;;;;;;;8273951;28;20372;-73
2021/08/22 02:56:28;;;;;;;5.40;2.97;;;;;;;;;;8258282;28;20356;-73
2021/08/22 03:00:33;;;;;;;5.93;3.05;;;;;;;;;;8258547;28;20471;-72
2021/08/22 03:04:39;;;;;;;5.05;3.20;;;;;;;;;;8258009;28;20360;-73
2021/08/22 03:08:44;;;;;;;4.22;2.80;;;;;;;;;;8257564;28;20383;-73
2021/08/22 03:12:50;;;;;;;5.28;3.30;;;;;;;;;;8259493;28;20368;-72
2021/08/22 03:16:55;;;;;;;5.80;3.20;;;;;;;;;;8258349;28;20538;-72
2021/08/22 03:21:00;;;;;;;5.15;3.00;;;;;;;;;;8258238;28;20076;-72
2021/08/22 03:25:06;;;;;;;4.68;3.35;;;;;;;;;;8257810;28;20541;-72
2021/08/22 03:29:12;;;;;;;4.82;2.92;;;;;;;;;;8255945;28;20049;-73
2021/08/22 03:33:16;;;;;;;4.43;3.00;;;;;;;;;;8258371;28;20079;-72
2021/08/22 03:37:21;;;;;;;4.80;2.97;;;;;;;;;;8260278;28;20463;-72
2021/08/22 03:41:26;;;;;;;3.92;2.70;;;;;;;;;;8259655;28;20476;-72
2021/08/22 03:45:32;;;;;;;4.65;2.60;;;;;;;;;;8273034;28;20371;-72
2021/08/22 03:49:37;;;;;;;5.70;3.20;;;;;;;;;;8257185;28;20371;-73
2021/08/22 03:53:42;;;;;;;7.88;3.08;;;;;;;;;;8259869;28;20052;-73
2021/08/22 03:57:48;;;;;;;5.05;2.95;;;;;;;;;;8255546;28;20395;-72
2021/08/22 04:01:54;;;;;;;4.68;3.05;;;;;;;;;;8259236;28;20356;-73
2021/08/22 04:06:24;;;;;;;5.70;2.63;;;;;;;;;;8263813;28;20037;-73
2021/08/22 04:10:30;;;;;;;6.32;2.50;;;;;;;;;;8265345;28;20375;-73
2021/08/22 04:14:35;;;;;;;3.78;2.60;;;;;;;;;;8262444;28;20041;-73
2021/08/22 04:18:40;;;;;;;3.88;2.58;;;;;;;;;;8264309;28;20541;-72
2021/08/22 04:22:46;;;;;;;7.95;3.30;;;;;;;;;;8277529;28;20067;-73
2021/08/22 04:26:51;;;;;;;8.57;3.65;;;;;;;;;;8261554;28;20501;-73
2021/08/22 04:30:57;;;;;;;8.75;3.30;;;;;;;;;;8261433;28;20505;-72
2021/08/22 04:35:02;;;;;;;5.05;2.90;;;;;;;;;;8246176;28;20488;-74
2021/08/22 04:39:07;;;;;;;4.25;2.80;;;;;;;;;;8263764;28;20341;-72
2021/08/22 04:43:12;;;;;;;6.78;3.75;;;;;;;;;;8261398;28;20048;-73
2021/08/22 04:47:17;;;;;;;5.60;3.13;;;;;;;;;;8278397;28;20376;-72
2021/08/22 04:51:22;;;;;;;5.57;3.58;;;;;;;;;;8263688;28;20053;-73
2021/08/22 04:55:27;;;;;;;5.95;3.63;;;;;;;;;;8262584;28;20063;-72
2021/08/22 04:59:32;;;;;;;7.55;3.92;;;;;;;;;;8262828;28;20067;-73
2021/08/22 05:03:37;;;;;;;6.90;4.15;;;;;;;;;;8261801;28;20075;-72
2021/08/22 05:07:43;;;;;;;6.32;4.50;;;;;;;;;;8261445;28;20506;-72
2021/08/22 05:11:48;;;;;;;7.43;3.75;;;;;;;;;;8261131;28;20398;-72
2021/08/22 05:15:54;;;;;;;6.75;4.03;;;;;;;;;;8260634;28;20044;-72
2021/08/22 05:19:59;;;;;;;6.47;4.07;;;;;;;;;;8261895;28;20367;-72
2021/08/22 05:24:05;;;;;;;9.18;4.85;;;;;;;;;;8261638;28;20392;-72
2021/08/22 05:28:11;;;;;;;7.07;4.63;;;;;;;;;;8261267;28;20049;-73
2021/08/22 05:32:16;;;;;;;11.93;4.35;;;;;;;;;;8260022;28;20476;-72
2021/08/22 05:36:24;;;;;;;6.95;4.53;;;;;;;;;;8263279;28;20475;-73
2021/08/22 05:40:27;;;;;;;9.45;4.72;;;;;;;;;;8260981;28;20367;-72
2021/08/22 05:44:34;;;;;;;11.13;4.90;;;;;;;;;;8261502;28;20494;-72
2021/08/22 05:48:39;;;;;;;6.95;4.80;;;;;;;;;;8258593;28;20049;-72
2021/08/22 05:52:44;;;;;;;8.07;4.45;;;;;;;;;;8259068;28;20456;-72
2021/08/22 05:56:49;;;;;;;8.30;5.35;;;;;;;;;;8261724;28;20440;-72
2021/08/22 06:00:55;;;;;;;8.32;4.65;;;;;;;;;;8258923;28;20487;-73
2021/08/22 06:05:00;;;;;;;14.45;4.97;;;;;;;;;;8239797;28;20072;-73
2021/08/22 06:09:06;;;;;;;10.48;5.25;;;;;;;;;;8259893;28;20484;-72
2021/08/22 06:13:13;;;;;;;6.68;4.50;;;;;;;;;;8259605;28;20337;-73
2021/08/22 06:17:16;;;;;;;10.30;4.60;;;;;;;;;;8259425;28;20394;-72
2021/08/22 06:21:22;;;;;;;5.53;4.50;;;;;;;;;;8261658;28;20376;-73
2021/08/22 06:25:27;;;;;;;11.63;5.00;;;;;;;;;;8258288;28;20491;-72
2021/08/22 06:29:32;;;;;;;8.32;4.32;;;;;;;;;;8224358;28;20479;-72
2021/08/22 06:33:37;;;;;;;10.00;4.35;;;;;;;;;;8245888;28;20075;-72
2021/08/22 06:37:43;;;;;;;9.30;4.18;;;;;;;;;;8258070;28;20071;-73
2021/08/22 06:41:48;;;;;;;7.07;4.38;;;;;;;;;;8258871;28;20526;-72
2021/08/22 06:45:53;;;;;;;8.18;4.28;;;;;;;;;;8258301;28;20444;-73
2021/08/22 06:49:58;;;;;;;8.38;4.45;;;;;;;;;;8260172;28;20048;-73
2021/08/22 06:54:03;;;;;;;11.95;4.88;;;;;;;;;;8258257;28;20419;-72
2021/08/22 06:58:09;;;;;;;6.70;4.28;;;;;;;;;;8258364;28;20399;-72
2021/08/22 07:02:14;;;;;;;6.82;4.20;;;;;;;;;;8258152;28;20076;-73
2021/08/22 07:06:20;;;;;;;12.60;3.70;;;;;;;;;;8258632;28;20041;-72
2021/08/22 07:10:25;;;;;;;5.90;3.97;;;;;;;;;;8260291;28;20461;-73
2021/08/22 07:14:30;;;;;;;7.35;4.00;;;;;;;;;;8258226;28;20045;-72
2021/08/22 07:18:35;;;;;;;9.60;4.20;;;;;;;;;;8258849;28;20464;-73
2021/08/22 07:22:40;;;;;;;5.85;3.78;;;;;;;;;;8259272;28;20106;-73
2021/08/22 07:26:45;;;;;;;6.18;4.32;;;;;;;;;;8258228;28;20363;-72
2021/08/22 07:30:51;;;;;;;7.45;4.20;;;;;;;;;;8257015;28;20052;-73
2021/08/22 07:34:57;;;;;;;6.60;4.18;;;;;;;;;;8256828;28;20049;-73
2021/08/22 07:39:02;;;;;;;9.80;4.20;;;;;;;;;;8255592;28;20440;-72
2021/08/22 07:43:07;;;;;;;6.25;3.65;;;;;;;;;;8258787;28;20481;-72
2021/08/22 07:47:13;;;;;;;4.90;3.30;;;;;;;;;;8258973;28;20383;-72
2021/08/22 07:51:18;;;;;;;3.67;2.70;;;;;;;;;;8256903;28;20384;-73
2021/08/22 07:55:23;;;;;;;4.90;3.50;;;;;;;;;;8257254;28;20346;-72
2021/08/22 07:59:29;;;;;;;4.15;2.88;;;;;;;;;;8257623;28;20360;-73
2021/08/22 08:03:34;;;;;;;5.82;3.58;;;;;;;;;;8255358;28;20483;-73
2021/08/22 08:07:40;;;;;;;4.03;3.08;;;;;;;;;;8258367;28;20387;-72
2021/08/22 08:11:49;;;;;;;3.20;2.40;;;;;;;;;;8259581;28;20063;-73
2021/08/22 08:15:54;;;;;;;4.43;2.53;;;;;;;;;;8256820;28;20521;-72
2021/08/22 08:20:00;;;;;;;4.90;2.70;;;;;;;;;;8257435;28;20423;-73
2021/08/22 08:24:05;;;;;;;3.72;2.38;;;;;;;;;;8255735;28;20480;-72
2021/08/22 08:28:10;;;;;;;4.60;2.55;;;;;;;;;;8256530;28;20486;-73
2021/08/22 08:32:16;;;;;;;3.85;2.22;;;;;;;;;;8255915;28;20492;-73
2021/08/22 08:36:21;;;;;;;4.53;2.45;;;;;;;;;;8239612;28;20052;-72
2021/08/22 08:40:26;;;;;;;3.78;2.20;;;;;;;;;;8256757;28;20494;-73
2021/08/22 08:44:40;;;;;;;5.55;2.40;;;;;;;;;;8256227;28;20344;-73
2021/08/22 08:48:54;;;;;;;3.30;2.63;;;;;;;;;;8255817;28;20045;-72
2021/08/22 08:53:07;;;;;;;2.90;1.92;;;;;;;;;;8262679;28;20340;-72
2021/08/22 08:57:14;;;;;;;2.78;1.70;;;;;;;;;;8260755;28;20574;-72
2021/08/22 09:01:19;;;;;;;3.67;2.15;;;;;;;;;;8264732;28;20041;-72
2021/08/22 09:05:35;;;;;;;4.03;2.30;;;;;;;;;;8262413;28;20044;-72
2021/08/22 09:10:33;;;;;;;3.33;2.08;;;;;;;;;;8261293;28;20387;-72
2021/08/22 09:15:28;;;;;;;3.58;2.25;;;;;;;;;;8262248;28;20361;-71
2021/08/22 09:20:18;;;;;;;3.17;1.92;;;;;;;;;;8261012;28;20037;-72
2021/08/22 09:24:32;;;;;;;2.95;2.00;;;;;;;;;;8261451;28;20392;-72
2021/08/22 09:29:24;;;;;;;2.67;1.75;;;;;;;;;;8261359;28;20468;-72
2021/08/22 09:34:26;;;;;;;4.63;1.67;;;;;;;;;;8261037;28;20387;-72
2021/08/22 09:39:09;;;;;;;2.05;1.58;;;;;;;;;;8262178;28;20049;-72
2021/08/22 09:43:33;;;;;;;2.00;1.50;;;;;;;;;;8261713;28;20041;-72
2021/08/22 09:48:36;;;;;;;3.38;1.65;;;;;;;;;;8260584;28;20349;-72
2021/08/22 09:53:25;;;;;;;4.55;1.83;;;;;;;;;;8218209;28;20542;-72
2021/08/22 09:58:26;;;;;;;1.90;1.50;;;;;;;;;;8260409;28;20452;-72
2021/08/22 10:03:25;;;;;;;3.33;2.28;;;;;;;;;;8258365;28;20403;-72
2021/08/22 10:07:57;;;;;;;3.40;1.85;;;;;;;;;;8258241;28;20075;-73
2021/08/22 10:12:04;;;;;;;4.53;1.90;;;;;;;;;;8250492;28;20383;-71
2021/08/22 10:16:10;;;;;;;3.90;1.67;;;;;;;;;;8242229;28;20041;-72
2021/08/22 10:20:20;;;;;;;2.90;1.85;;;;;;;;;;8258489;28;20468;-72
2021/08/22 10:24:25;;;;;;;2.88;1.73;;;;;;;;;;8260685;28;20399;-72
2021/08/22 10:28:45;;;;;;;2.38;1.33;;;;;;;;;;8259526;28;20475;-72
2021/08/22 10:32:57;;;;;;;2.70;1.42;;;;;;;;;;8258862;28;20075;-72
2021/08/22 10:37:31;;;;;;;4.32;1.90;;;;;;;;;;8257700;28;20040;-72
2021/08/22 10:41:37;;;;;;;2.63;1.52;;;;;;;;;;8258777;28;20504;-73
2021/08/22 10:45:47;;;;;;;4.63;2.00;;;;;;;;;;8260353;28;20457;-72
2021/08/22 10:49:55;;;;;;;4.18;1.60;;;;;;;;;;8257704;28;20391;-72
2021/08/22 10:54:17;;;;;;;2.88;1.98;;;;;;;;;;8257915;28;20130;-72
2021/08/22 10:58:58;;;;;;;3.50;1.92;;;;;;;;;;8256733;28;20053;-72
2021/08/22 11:03:22;;;;;;;3.63;1.90;;;;;;;;;;8258661;28;20497;-72
2021/08/22 11:07:27;;;;;;;3.05;1.85;;;;;;;;;;8258510;28;20364;-72
2021/08/22 11:11:32;;;;;;;3.63;1.73;;;;;;;;;;8258175;28;20395;-72
2021/08/22 11:15:39;;;;;;;1.85;1.40;;;;;;;;;;8256598;28;20356;-72
2021/08/22 11:19:45;;;;;;;1.80;1.50;;;;;;;;;;8257638;28;20330;-73
2021/08/22 11:24:01;;;;;;;4.55;1.70;;;;;;;;;;8257943;28;20044;-72
2021/08/22 11:28:12;;;;;;;2.53;1.42;;;;;;;;;;8256798;28;20590;-71
2021/08/22 11:32:17;;;;;;;7.80;1.80;;;;;;;;;;8258107;28;20356;-72
2021/08/22 11:36:29;;;;;;;2.03;1.55;;;;;;;;;;8257599;28;20075;-72
2021/08/22 11:40:36;;;;;;;2.50;1.48;;;;;;;;;;8256477;28;20059;-72
2021/08/22 11:44:41;;;;;;;2.60;1.65;;;;;;;;;;8256314;28;20498;-72
2021/08/22 11:48:46;;;;;;;3.88;1.55;;;;;;;;;;8255968;28;20384;-72
2021/08/22 11:52:53;;;;;;;4.70;1.60;;;;;;;;;;8255288;28;20375;-72
2021/08/22 11:57:21;;;;;;;;;;;;;;;;;;8257370;28;20374;-72
2021/08/22 12:01:27;;;;;;;5.07;1.77;;;;;;;;;;8255483;28;20375;-72
2021/08/22 12:05:34;;;;;;;3.67;1.55;;;;;;;;;;8257213;28;20477;-72
2021/08/22 12:09:50;;;;;;;4.00;1.80;;;;;;;;;;8258049;28;20349;-72
2021/08/22 12:13:55;;;;;;;2.80;1.90;;;;;;;;;;8239826;28;20601;-72
2021/08/22 12:18:39;;;;;;;3.67;1.67;;;;;;;;;;8256275;28;20384;-72
2021/08/22 12:22:58;;;;;;;2.10;1.55;;;;;;;;;;8124250;28;20088;-72
2021/08/22 12:27:06;;;;;;;3.15;1.88;;;;;;;;;;8203557;28;20498;-72
2021/08/22 12:31:15;;;;;;;2.67;1.45;;;;;;;;;;8261055;28;20053;-72
2021/08/22 12:35:25;;;;;;;2.83;1.95;;;;;;;;;;8264799;28;20383;-72
2021/08/22 12:39:31;;;;;;;3.50;1.80;;;;;;;;;;8262853;28;20095;-72
2021/08/22 12:43:36;;;;;;;3.88;1.70;;;;;;;;;;8264190;28;20064;-72
2021/08/22 12:47:41;;;;;;;2.78;1.50;;;;;;;;;;8263076;28;20063;-72
2021/08/22 12:52:05;;;;;;;2.28;1.60;;;;;;;;;;8261506;28;20447;-72
2021/08/22 12:56:11;;;;;;;2.70;1.75;;;;;;;;;;8265231;28;20037;-72
2021/08/22 13:00:17;;;;;;;3.45;1.73;;;;;;;;;;8262226;28;20345;-72
2021/08/22 13:04:23;;;;;;;2.33;1.50;;;;;;;;;;8262299;28;20472;-72
2021/08/22 13:08:30;;;;;;;2.90;1.55;;;;;;;;;;8259684;28;20373;-72
2021/08/22 13:12:35;;;;;;;2.17;1.52;;;;;;;;;;8262486;28;20360;-72
2021/08/22 13:16:40;;;;;;;2.92;1.88;;;;;;;;;;8260260;28;20372;-72
2021/08/22 13:20:46;;;;;;;2.30;1.50;;;;;;;;;;8263239;28;20367;-72
2021/08/22 13:24:53;;;;;;;;;;;;;;;;;;8260471;28;20083;-72
2021/08/22 13:28:58;;;;;;;3.22;1.80;;;;;;;;;;8263117;28;19924;-72
2021/08/22 13:33:04;;;;;;;3.78;2.20;;;;;;;;;;8261112;28;20479;-72
2021/08/22 13:37:10;;;;;;;5.35;2.03;;;;;;;;;;8261770;28;20471;-72
2021/08/22 13:41:15;;;;;;;3.55;1.92;;;;;;;;;;8260798;28;20628;-72
2021/08/22 13:45:20;;;;;;;8.75;1.80;;;;;;;;;;8262272;28;20480;-72
2021/08/22 13:49:26;;;;;;;2.45;1.63;;;;;;;;;;8260666;28;20333;-72
2021/08/22 13:53:32;;;;;;;4.50;1.98;;;;;;;;;;8260258;28;20486;-72
2021/08/22 13:57:37;;;;;;;4.55;1.98;;;;;;;;;;8259353;28;20495;-72
2021/08/22 14:01:42;;;;;;;6.50;2.70;;;;;;;;;;8262458;28;20053;-72
2021/08/22 14:05:48;;;;;;;10.02;3.13;;;;;;;;;;8260853;28;20375;-71
2021/08/22 14:09:53;;;;;;;7.70;2.85;;;;;;;;;;8258711;28;20467;-72
2021/08/22 14:13:58;;;;;;;5.38;2.22;;;;;;;;;;8262002;28;20356;-72
2021/08/22 14:18:03;;;;;;;9.93;3.13;;;;;;;;;;8260051;28;20459;-72
2021/08/22 14:22:08;;;;;;;7.97;3.15;;;;;;;;;;8258367;28;20384;-72
2021/08/22 14:26:13;;;;;;;7.10;3.10;;;;;;;;;;8242656;28;20071;-72
2021/08/22 14:30:18;;;;;;;6.65;2.40;;;;;;;;;;8261188;28;20367;-72
2021/08/22 14:34:25;;;;;;;8.07;2.58;;;;;;;;;;8258617;28;20464;-71
2021/08/22 14:38:30;;;;;;;9.23;2.70;;;;;;;;;;8259657;28;20359;-72
2021/08/22 14:42:36;;;;;;;6.13;2.60;;;;;;;;;;8256721;28;20479;-72
2021/08/22 14:46:42;;;;;;;4.72;2.17;;;;;;;;;;8257083;28;20467;-72
2021/08/22 14:50:47;;;;;;;3.17;1.92;;;;;;;;;;8258820;28;20713;-72
2021/08/22 14:54:52;;;;;;;4.72;2.40;;;;;;;;;;8258542;28;20415;-72
2021/08/22 14:58:58;;;;;;;6.57;2.42;;;;;;;;;;8258930;28;20049;-72
2021/08/22 15:03:05;;;;;;;6.30;2.20;;;;;;;;;;8257195;28;20052;-72
2021/08/22 15:07:11;;;;;;;3.65;2.55;;;;;;;;;;8260510;28;20368;-72
2021/08/22 15:11:16;;;;;;;7.77;3.23;;;;;;;;;;8259578;28;20490;-72
2021/08/22 15:15:22;;;;;;;3.55;2.25;;;;;;;;;;8257467;28;20049;-72
2021/08/22 15:19:29;;;;;;;3.13;2.13;;;;;;;;;;8257551;28;20463;-72
2021/08/22 15:23:36;;;;;;;5.40;2.20;;;;;;;;;;8257671;28;20037;-71
2021/08/22 15:27:41;;;;;;;2.58;1.83;;;;;;;;;;8260555;28;20471;-72
2021/08/22 15:31:47;;;;;;;3.83;2.15;;;;;;;;;;8258414;28;20357;-72
2021/08/22 15:35:52;;;;;;;3.55;2.03;;;;;;;;;;8257775;28;20375;-72
2021/08/22 15:39:58;;;;;;;5.10;2.25;;;;;;;;;;8255178;28;20355;-72
2021/08/22 15:44:08;;;;;;;3.72;1.85;;;;;;;;;;8259898;28;20372;-72
2021/08/22 15:48:13;;;;;;;2.78;1.95;;;;;;;;;;8259855;28;20353;-72
2021/08/22 15:52:18;;;;;;;3.47;1.85;;;;;;;;;;8257306;28;20387;-72
2021/08/22 15:56:23;;;;;;;3.42;1.95;;;;;;;;;;8256864;28;20348;-72
2021/08/22 16:00:29;;;;;;;2.92;1.85;;;;;;;;;;8261628;28;20460;-72
2021/08/22 16:04:35;;;;;;;3.28;1.88;;;;;;;;;;8263327;28;20367;-72
2021/08/22 16:08:40;;;;;;;3.53;2.05;;;;;;;;;;8264494;28;20428;-72
2021/08/22 16:12:45;;;;;;;4.68;2.30;;;;;;;;;;8262086;28;20404;-71
2021/08/22 16:16:51;;;;;;;3.65;2.15;;;;;;;;;;8262078;28;20460;-72
2021/08/22 16:20:56;;;;;;;4.05;2.28;;;;;;;;;;8262958;28;20495;-73
2021/08/22 16:25:01;;;;;;;4.28;2.00;;;;;;;;;;8262278;28;20491;-72
2021/08/22 16:29:07;;;;;;;3.47;2.20;;;;;;;;;;8264568;28;20037;-72
2021/08/22 16:33:13;;;;;;;4.13;2.00;;;;;;;;;;8262936;28;20364;-72
2021/08/22 16:37:18;;;;;;;7.00;3.33;;;;;;;;;;8261354;28;20474;-72
2021/08/22 16:41:23;;;;;;;6.38;3.42;;;;;;;;;;8264262;28;20447;-72
2021/08/22 16:45:29;;;;;;;10.90;2.38;;;;;;;;;;8244086;28;20509;-72
2021/08/22 16:49:34;;;;;;;9.55;3.10;;;;;;;;;;8263076;28;20506;-72
2021/08/22 16:53:41;;;;;;;8.65;2.45;;;;;;;;;;8262682;28;20310;-72
2021/08/22 16:57:46;;;;;;;16.17;3.40;;;;;;;;;;8263324;28;20049;-72
2021/08/22 17:02:24;;;;;;;6.47;3.42;;;;;;;;;;8261430;28;20133;-72
2021/08/22 17:06:30;;;;;;;6.47;3.40;;;;;;;;;;8245087;28;20048;-72
2021/08/22 17:10:35;;;;;;;11.05;4.25;;;;;;;;;;8262894;28;20488;-72
2021/08/22 17:14:41;;;;;;;9.13;5.05;;;;;;;;;;8262663;28;20503;-72
2021/08/22 17:18:46;;;;;;;9.38;3.28;;;;;;;;;;8260226;28;20483;-72
2021/08/22 17:23:21;;;;;;;9.45;2.95;;;;;;;;;;8263676;28;20454;-72
2021/08/22 17:27:26;;;;;;;13.95;3.65;;;;;;;;;;8261145;28;20345;-72
2021/08/22 17:31:31;;;;;;;5.03;2.88;;;;;;;;;;8242222;28;20478;-72
2021/08/22 17:35:38;;;;;;;8.50;3.80;;;;;;;;;;8261059;28;20348;-72
2021/08/22 17:39:44;;;;;;;9.10;3.60;;;;;;;;;;8260817;28;20041;-72
2021/08/22 17:43:49;;;;;;;5.15;2.90;;;;;;;;;;8262071;28;20378;-72
2021/08/22 17:47:54;;;;;;;17.67;8.98;;;;;;;;;;8259650;28;20402;-72
2021/08/22 17:51:59;;;;;;;8.93;4.43;;;;;;;;;;8260819;28;20449;-72
2021/08/22 17:56:05;;;;;;;12.20;4.53;;;;;;;;;;8261065;28;20406;-72
2021/08/22 18:00:11;;;;;;;11.77;4.75;;;;;;;;;;8261061;28;20053;-72
2021/08/22 18:04:17;;;;;;;6.03;3.10;;;;;;;;;;8258666;28;20363;-72
2021/08/22 18:08:22;;;;;;;6.50;3.05;;;;;;;;;;8259961;28;20041;-72
2021/08/22 18:12:27;;;;;;;4.03;2.90;;;;;;;;;;8262775;28;20484;-72
2021/08/22 18:16:33;;;;;;;4.90;3.00;;;;;;;;;;8260754;28;20357;-72
2021/08/22 18:20:38;;;;;;;5.43;2.78;;;;;;;;;;8260581;28;20483;-72
2021/08/22 18:24:44;;;;;;;4.88;3.00;;;;;;;;;;8258412;28;20348;-72
2021/08/22 18:28:49;;;;;;;4.18;2.65;;;;;;;;;;8241376;28;20337;-72
2021/08/22 18:32:54;;;;;;;5.60;3.00;;;;;;;;;;8256520;28;20376;-72
2021/08/22 18:37:00;;;;;;;6.32;3.10;;;;;;;;;;8258078;28;20485;-72
2021/08/22 18:41:06;;;;;;;7.65;3.53;;;;;;;;;;8258798;28;20490;-72
2021/08/22 18:45:14;;;;;;;8.02;4.13;;;;;;;;;;8260642;28;20355;-72
2021/08/22 18:49:19;;;;;;;9.88;4.13;;;;;;;;;;8257969;28;20346;-72
2021/08/22 18:53:25;;;;;;;7.97;4.45;;;;;;;;;;8258814;28;20340;-72
2021/08/22 18:57:30;;;;;;;6.22;4.30;;;;;;;;;;8256357;28;20507;-72
2021/08/22 19:01:37;;;;;;;6.13;4.10;;;;;;;;;;8256454;28;20384;-72
2021/08/22 19:05:42;;;;;;;6.18;2.72;;;;;;;;;;8241450;28;20452;-72
2021/08/22 19:09:47;;;;;;;6.32;3.40;;;;;;;;;;8259896;28;20075;-72
2021/08/22 19:13:52;;;;;;;5.85;3.78;;;;;;;;;;8258795;28;20057;-72
2021/08/22 19:17:58;;;;;;;6.47;2.97;;;;;;;;;;8257176;28;20064;-72
2021/08/22 19:22:05;;;;;;;6.20;3.15;;;;;;;;;;8228780;28;20040;-72
2021/08/22 19:26:10;;;;;;;9.75;3.53;;;;;;;;;;8299981;28;20501;-72
2021/08/22 19:30:17;;;;;;;10.45;3.33;;;;;;;;;;8290450;28;20071;-72
2021/08/22 19:34:22;;;;;;;7.20;3.65;;;;;;;;;;8291854;28;20482;-72
2021/08/22 19:38:28;;;;;;;16.95;4.63;;;;;;;;;;8290813;28;20045;-72
2021/08/22 19:42:36;;;;;;;7.43;3.45;;;;;;;;;;8290671;28;20394;-72
2021/08/22 19:46:42;;;;;;;10.82;4.60;;;;;;;;;;8292752;28;20067;-72
2021/08/22 19:50:48;;;;;;;8.65;3.42;;;;;;;;;;8289721;28;20557;-71
2021/08/22 19:54:54;;;;;;;11.60;3.40;;;;;;;;;;8289599;28;20348;-72
2021/08/22 19:58:59;;;;;;;6.80;3.92;;;;;;;;;;8290001;28;20378;-72
2021/08/22 20:03:05;;;;;;;10.35;3.15;;;;;;;;;;8288297;28;20410;-72
2021/08/22 20:07:11;;;;;;;4.93;3.20;;;;;;;;;;8290173;28;20468;-71
2021/08/22 20:11:16;;;;;;;9.45;3.25;;;;;;;;;;8290971;28;20316;-72
2021/08/22 20:15:21;;;;;;;5.22;3.33;;;;;;;;;;8289727;28;20502;-72
2021/08/22 20:19:27;;;;;;;7.78;3.67;;;;;;;;;;8291604;28;20044;-72
2021/08/22 20:23:32;;;;;;;7.78;4.43;;;;;;;;;;8288381;28;20391;-71
2021/08/22 20:27:37;;;;;;;5.85;3.85;;;;;;;;;;8288184;28;20045;-72
2021/08/22 20:31:43;;;;;;;9.75;3.67;;;;;;;;;;8304226;28;20455;-73
2021/08/22 20:35:49;;;;;;;5.82;3.47;;;;;;;;;;8289884;28;20477;-72
2021/08/22 20:39:54;;;;;;;5.93;2.92;;;;;;;;;;8271575;28;20362;-72
2021/08/22 20:43:59;;;;;;;10.13;3.45;;;;;;;;;;8290562;28;20067;-73
2021/08/22 20:48:04;;;;;;;6.80;3.58;;;;;;;;;;8278760;28;20459;-77
2021/08/22 20:52:09;;;;;;;9.13;3.70;;;;;;;;;;8295469;28;20463;-76
2021/08/22 20:56:14;;;;;;;8.30;4.20;;;;;;;;;;8293894;28;20494;-76
2021/08/22 21:00:20;;;;;;;7.88;3.78;;;;;;;;;;8293595;28;20487;-76
2021/08/22 21:04:27;;;;;;;6.53;3.63;;;;;;;;;;8295513;28;20475;-76
2021/08/22 21:08:32;;;;;;;5.75;3.53;;;;;;;;;;8294985;28;20044;-76
2021/08/22 21:12:41;;;;;;;5.55;3.38;;;;;;;;;;8277593;28;20466;-76
2021/08/22 21:16:46;;;;;;;6.93;3.28;;;;;;;;;;8294714;28;20341;-76
2021/08/22 21:20:51;;;;;;;7.45;3.55;;;;;;;;;;8294064;28;20480;-76
2021/08/22 21:24:56;;;;;;;6.68;4.05;;;;;;;;;;8297794;28;20447;-76
2021/08/22 21:29:01;;;;;;;7.05;3.50;;;;;;;;;;8295286;28;20064;-76
2021/08/22 21:33:07;;;;;;;5.32;3.40;;;;;;;;;;8293917;28;20489;-76
2021/08/22 21:37:12;;;;;;;5.22;3.00;;;;;;;;;;8293765;28;20454;-76
2021/08/22 21:41:18;;;;;;;3.53;2.83;;;;;;;;;;8292280;28;20478;-76
2021/08/22 21:45:23;;;;;;;6.20;3.63;;;;;;;;;;8294232;28;20400;-75
2021/08/22 21:49:28;;;;;;;5.10;3.65;;;;;;;;;;8294889;28;20375;-75
2021/08/22 21:53:34;;;;;;;8.00;3.53;;;;;;;;;;8292960;28;20370;-76
2021/08/22 21:57:39;;;;;;;9.52;3.95;;;;;;;;;;8292120;28;20456;-75
2021/08/22 22:01:45;;;;;;;6.55;3.45;;;;;;;;;;8293197;28;20058;-75
2021/08/22 22:05:50;;;;;;;5.60;3.58;;;;;;;;;;8293350;28;20390;-75
2021/08/22 22:09:55;;;;;;;5.88;3.67;;;;;;;;;;8290272;28;20375;-75
2021/08/22 22:14:00;;;;;;;5.97;3.83;;;;;;;;;;8293415;28;20467;-75
2021/08/22 22:18:06;;;;;;;12.40;3.85;;;;;;;;;;8290956;28;20401;-75
2021/08/22 22:22:11;;;;;;;7.45;3.80;;;;;;;;;;8293243;28;20056;-75
2021/08/22 22:26:17;;;;;;;6.45;4.25;;;;;;;;;;8291031;28;20501;-76
2021/08/22 22:30:23;;;;;;;6.20;3.80;;;;;;;;;;8290872;28;20376;-75
2021/08/22 22:34:30;;;;;;;4.50;3.10;;;;;;;;;;8292206;28;20375;-75
2021/08/22 22:38:35;;;;;;;7.25;3.30;;;;;;;;;;8291447;28;20379;-75
2021/08/22 22:42:40;;;;;;;7.32;3.95;;;;;;;;;;8291641;28;20041;-76
2021/08/22 22:46:46;;;;;;;8.45;4.00;;;;;;;;;;8292026;28;20498;-75
2021/08/22 22:50:52;;;;;;;7.38;3.72;;;;;;;;;;8273621;28;20324;-75
2021/08/22 22:54:57;;;;;;;6.85;3.20;;;;;;;;;;8291448;28;20048;-76
2021/08/22 22:59:02;;;;;;;8.00;3.92;;;;;;;;;;8290725;28;20074;-76
2021/08/22 23:03:08;;;;;;;7.97;3.70;;;;;;;;;;8290893;28;20505;-76
2021/08/22 23:07:13;;;;;;;9.13;3.95;;;;;;;;;;8291052;28;20040;-75
2021/08/22 23:11:18;;;;;;;4.93;3.42;;;;;;;;;;8289311;28;20071;-76
2021/08/22 23:15:23;;;;;;;7.22;4.10;;;;;;;;;;8290110;28;20033;-76
2021/08/22 23:19:28;;;;;;;6.60;3.85;;;;;;;;;;8291525;28;20398;-76
2021/08/22 23:23:33;;;;;;;5.82;3.70;;;;;;;;;;8291590;28;20036;-76
2021/08/22 23:27:39;;;;;;;5.82;3.60;;;;;;;;;;8290399;28;20056;-76
2021/08/22 23:31:44;;;;;;;5.90;3.90;;;;;;;;;;8290369;28;20074;-76
2021/08/22 23:35:50;;;;;;;6.05;3.60;;;;;;;;;;8289494;28;20347;-75
2021/08/22 23:39:55;;;;;;;5.60;3.38;;;;;;;;;;8290067;28;20383;-75
2021/08/22 23:44:00;;;;;;;4.95;3.42;;;;;;;;;;8290301;28;20461;-75
2021/08/22 23:48:05;;;;;;;5.95;3.58;;;;;;;;;;8291020;28;20040;-75
2021/08/22 23:52:11;;;;;;;4.63;3.40;;;;;;;;;;8291097;28;20398;-75
2021/08/22 23:56:16;;;;;;;7.70;3.33;;;;;;;;;;8290361;28;20370;-75
